Time;durP1;ratioP1;P1;durP2;ratioP2;P2;SDS_P1;SDS_P2;PMS_P1;PMS_P2;Temp;Humidity;BMP_temperature;BMP_pressure;BME280_temperature;BME280_humidity;BME280_pressure;Samples;Min_cycle;Max_cycle;Signal;HPM_P1;HPM_P2
2022/03/22 00:01:27;;;;;;;45.08;30.05;;;5.50;99.90;;;;;;5095233;28;20044;-75
2022/03/22 00:03:53;;;;;;;45.05;30.17;;;5.50;99.90;;;;;;5095316;28;20051;-75
2022/03/22 00:06:19;;;;;;;47.22;30.33;;;5.50;99.90;;;;;;5113844;28;20069;-75
2022/03/22 00:08:45;;;;;;;51.00;30.55;;;5.50;99.90;;;;;;5104897;28;20483;-75
2022/03/22 00:11:11;;;;;;;46.95;30.92;;;5.50;99.90;;;;;;5109084;28;20043;-75
2022/03/22 00:13:38;;;;;;;49.05;31.58;;;5.50;99.90;;;;;;5115550;28;20048;-75
2022/03/22 00:16:04;;;;;;;46.10;31.58;;;5.40;99.90;;;;;;5099856;28;20391;-75
2022/03/22 00:18:30;;;;;;;45.75;31.08;;;5.40;99.90;;;;;;5095394;28;20093;-75
2022/03/22 00:20:58;;;;;;;45.25;31.00;;;5.40;99.90;;;;;;5108545;28;20044;-75
2022/03/22 00:23:24;;;;;;;47.95;30.60;;;5.40;99.90;;;;;;5105335;28;20050;-75
2022/03/22 00:25:50;;;;;;;45.00;29.33;;;5.40;99.90;;;;;;5107579;28;20040;-75
2022/03/22 00:28:16;;;;;;;50.50;31.73;;;5.40;99.90;;;;;;5114986;28;20127;-75
2022/03/22 00:30:43;;;;;;;53.08;29.52;;;5.40;99.90;;;;;;5084461;28;20086;-75
2022/03/22 00:33:09;;;;;;;51.28;32.00;;;5.40;99.90;;;;;;5095314;28;20507;-75
2022/03/22 00:35:36;;;;;;;45.50;30.65;;;5.50;99.90;;;;;;5085243;28;20411;-75
2022/03/22 00:38:06;;;;;;;49.10;32.85;;;5.40;99.90;;;;;;5115525;28;20479;-75
2022/03/22 00:40:33;;;;;;;45.42;30.00;;;5.40;99.90;;;;;;5106772;28;20578;-75
2022/03/22 00:42:59;;;;;;;45.45;30.48;;;5.40;99.90;;;;;;5095134;28;20036;-75
2022/03/22 00:45:27;;;;;;;44.78;31.23;;;5.40;99.90;;;;;;5081673;28;20506;-75
2022/03/22 00:47:54;;;;;;;49.08;31.98;;;5.40;99.90;;;;;;5076338;28;20048;-75
2022/03/22 00:50:26;;;;;;;46.38;32.30;;;5.40;99.90;;;;;;5089599;28;20132;-75
2022/03/22 00:52:52;;;;;;;45.83;31.95;;;5.50;99.90;;;;;;5094018;28;20391;-75
2022/03/22 00:55:21;;;;;;;46.22;31.13;;;5.40;99.90;;;;;;5093709;28;20040;-75
2022/03/22 00:57:47;;;;;;;46.70;30.50;;;5.40;99.90;;;;;;5094876;28;20055;-75
2022/03/22 01:00:14;;;;;;;47.05;31.42;;;5.40;99.90;;;;;;5094063;28;20040;-75
2022/03/22 01:02:43;;;;;;;46.00;32.35;;;5.30;99.90;;;;;;5092836;28;20048;-75
2022/03/22 01:05:13;;;;;;;52.40;33.40;;;5.30;99.90;;;;;;5094404;28;20044;-75
2022/03/22 01:07:40;;;;;;;51.20;31.70;;;5.30;99.90;;;;;;5093528;28;20052;-75
2022/03/22 01:10:09;;;;;;;46.03;30.15;;;5.30;99.90;;;;;;5093532;28;20055;-75
2022/03/22 01:12:39;;;;;;;48.97;30.48;;;5.30;99.90;;;;;;5074335;28;20391;-75
2022/03/22 01:15:15;;;;;;;47.45;32.63;;;5.20;99.90;;;;;;5075914;28;20059;-75
2022/03/22 01:17:45;;;;;;;47.28;29.42;;;5.20;99.90;;;;;;5073256;28;20045;-75
2022/03/22 01:20:11;;;;;;;46.75;31.27;;;5.20;99.90;;;;;;5078189;28;20193;-75
2022/03/22 01:22:42;;;;;;;45.63;30.02;;;5.10;99.90;;;;;;5091283;28;20147;-75
2022/03/22 01:25:15;;;;;;;45.05;31.20;;;5.10;99.90;;;;;;5093118;28;20526;-75
2022/03/22 01:27:42;;;;;;;42.60;29.27;;;5.10;99.90;;;;;;5094126;28;20181;-75
2022/03/22 01:30:15;;;;;;;50.00;32.45;;;5.10;99.90;;;;;;5093503;28;20040;-75
2022/03/22 01:32:41;;;;;;;48.95;31.13;;;5.00;99.90;;;;;;5092806;28;20048;-75
2022/03/22 01:35:09;;;;;;;48.45;32.35;;;5.00;99.90;;;;;;5082954;28;20060;-75
2022/03/22 01:37:35;;;;;;;45.50;32.30;;;5.00;99.90;;;;;;5071594;28;20484;-75
2022/03/22 01:40:02;;;;;;;45.00;31.17;;;4.90;99.90;;;;;;5092455;28;20124;-75
2022/03/22 01:42:27;;;;;;;52.88;33.53;;;4.90;99.90;;;;;;5092723;28;20487;-75
2022/03/22 01:44:53;;;;;;;53.30;34.15;;;4.90;99.90;;;;;;5092916;28;20039;-75
2022/03/22 01:47:20;;;;;;;50.05;31.70;;;4.90;99.90;;;;;;5092441;28;20537;-75
2022/03/22 01:49:47;;;;;;;49.40;33.70;;;4.90;99.90;;;;;;5103306;28;20055;-75
2022/03/22 01:52:21;;;;;;;50.28;34.92;;;4.90;99.90;;;;;;5112797;28;20060;-75
2022/03/22 01:54:51;;;;;;;59.85;36.33;;;4.90;99.90;;;;;;5113813;28;20083;-75
2022/03/22 01:57:22;;;;;;;50.05;33.83;;;4.80;99.90;;;;;;5095855;28;20050;-75
2022/03/22 01:59:48;;;;;;;58.92;35.97;;;4.90;99.90;;;;;;5112682;28;20047;-75
2022/03/22 02:07:47;;;;;;;57.05;35.80;;;4.90;99.90;;;;;;5114153;28;20457;-75
2022/03/22 02:10:14;;;;;;;56.75;35.35;;;4.90;99.90;;;;;;5113741;28;20055;-75
2022/03/22 02:12:42;;;;;;;55.63;34.92;;;4.90;99.90;;;;;;5113019;28;20051;-75
2022/03/22 02:15:07;;;;;;;52.63;35.35;;;4.90;99.90;;;;;;5113560;28;20077;-75
2022/03/22 02:17:37;;;;;;;47.40;32.80;;;4.90;99.90;;;;;;5113554;28;20039;-75
2022/03/22 02:20:03;;;;;;;49.28;33.72;;;4.80;99.90;;;;;;5096404;28;20491;-75
2022/03/22 02:22:36;;;;;;;48.55;32.78;;;4.90;99.90;;;;;;5094625;28;20403;-75
2022/03/22 02:25:03;;;;;;;51.17;34.70;;;4.80;99.90;;;;;;5114472;28;20035;-75
2022/03/22 02:27:34;;;;;;;51.67;34.75;;;4.90;99.90;;;;;;5116997;28;20055;-75
2022/03/22 02:30:00;;;;;;;46.75;32.13;;;4.90;99.90;;;;;;5080823;28;20044;-75
2022/03/22 02:32:26;;;;;;;54.28;33.53;;;4.90;99.90;;;;;;5097763;28;20105;-75
2022/03/22 02:34:52;;;;;;;53.40;33.95;;;4.90;99.90;;;;;;5099296;28;20478;-75
2022/03/22 02:37:18;;;;;;;75.72;34.80;;;4.90;99.90;;;;;;5097645;28;20052;-75
2022/03/22 02:39:44;;;;;;;48.58;33.67;;;4.90;99.90;;;;;;5097218;28;20043;-75
2022/03/22 02:42:11;;;;;;;54.53;35.22;;;4.90;99.90;;;;;;5117006;28;20123;-75
2022/03/22 02:44:37;;;;;;;52.17;34.13;;;4.90;99.90;;;;;;5117680;28;20036;-75
2022/03/22 02:47:03;;;;;;;55.67;34.72;;;5.00;99.90;;;;;;5116818;28;20050;-75
2022/03/22 02:49:34;;;;;;;52.75;34.97;;;5.00;99.90;;;;;;5109374;28;20056;-75
2022/03/22 02:52:01;;;;;;;59.78;33.97;;;5.00;99.90;;;;;;5078920;28;20530;-75
2022/03/22 02:54:27;;;;;;;51.17;32.13;;;5.00;99.90;;;;;;5109527;28;20176;-75
2022/03/22 02:56:52;;;;;;;53.95;33.38;;;5.00;99.90;;;;;;5116945;28;20122;-75
2022/03/22 02:59:18;;;;;;;49.50;32.33;;;5.00;99.90;;;;;;5099202;28;20044;-75
2022/03/22 03:01:44;;;;;;;49.15;32.92;;;5.00;99.90;;;;;;5098072;28;20040;-75
2022/03/22 03:04:09;;;;;;;47.08;32.72;;;5.00;99.90;;;;;;5117263;28;20040;-75
2022/03/22 03:06:36;;;;;;;48.30;32.78;;;5.00;99.90;;;;;;5099145;28;20079;-75
2022/03/22 03:09:02;;;;;;;52.00;32.78;;;5.00;99.90;;;;;;5115992;28;20043;-75
2022/03/22 03:11:28;;;;;;;47.80;32.78;;;4.90;99.90;;;;;;5098792;28;20051;-75
2022/03/22 03:16:39;;;;;;;51.20;32.42;;;4.90;99.90;;;;;;5096335;28;20048;-75
2022/03/22 03:19:06;;;;;;;54.92;33.63;;;4.90;99.90;;;;;;5088805;28;20169;-75
2022/03/22 03:21:31;;;;;;;46.22;31.30;;;4.90;99.90;;;;;;5102338;28;20495;-75
2022/03/22 03:23:57;;;;;;;47.47;32.97;;;4.90;99.90;;;;;;5086106;28;20054;-75
2022/03/22 03:26:23;;;;;;;50.28;33.90;;;4.80;99.90;;;;;;5117044;28;20047;-75
2022/03/22 03:28:49;;;;;;;50.75;33.05;;;4.80;99.90;;;;;;5116728;28;20395;-75
2022/03/22 03:31:14;;;;;;;47.55;31.83;;;4.80;99.90;;;;;;5097851;28;20463;-75
2022/03/22 03:33:40;;;;;;;48.10;33.42;;;4.80;99.90;;;;;;5116653;28;20039;-75
2022/03/22 03:36:06;;;;;;;51.33;32.78;;;4.80;99.90;;;;;;5096475;28;20055;-75
2022/03/22 03:38:41;;;;;;;56.65;35.55;;;4.70;99.90;;;;;;5115207;28;20043;-75
2022/03/22 03:43:55;;;;;;;58.45;34.45;;;4.70;99.90;;;;;;5097115;28;20122;-75
2022/03/22 03:49:06;;;;;;;56.30;37.23;;;4.70;99.90;;;;;;5116242;28;20043;-75
2022/03/22 03:51:33;;;;;;;57.42;37.35;;;4.70;99.90;;;;;;5110984;28;20297;-75
2022/03/22 03:54:00;;;;;;;53.28;36.25;;;4.70;99.90;;;;;;5116087;28;20036;-75
2022/03/22 03:56:26;;;;;;;51.42;35.28;;;4.70;99.90;;;;;;5116466;28;20067;-75
2022/03/22 03:58:51;;;;;;;51.17;34.28;;;4.80;99.90;;;;;;5096990;28;20498;-75
2022/03/22 04:01:17;;;;;;;50.92;34.63;;;4.70;99.90;;;;;;5116353;28;20043;-75
2022/03/22 04:03:46;;;;;;;51.95;34.25;;;4.70;99.90;;;;;;5097833;28;20067;-75
2022/03/22 04:06:11;;;;;;;47.95;34.35;;;4.70;99.90;;;;;;5102765;28;20077;-75
2022/03/22 04:08:37;;;;;;;50.08;32.75;;;4.70;99.90;;;;;;5095713;28;20043;-75
2022/03/22 04:11:03;;;;;;;50.20;35.33;;;4.60;99.90;;;;;;5115612;28;20126;-75
2022/03/22 04:13:28;;;;;;;61.83;36.47;;;4.60;99.90;;;;;;5111467;28;20047;-75
2022/03/22 04:15:54;;;;;;;52.40;34.35;;;4.60;99.90;;;;;;5107974;28;20046;-75
2022/03/22 04:18:21;;;;;;;59.85;34.88;;;4.60;99.90;;;;;;5096755;28;20043;-75
2022/03/22 04:20:47;;;;;;;54.00;34.55;;;4.60;99.90;;;;;;5115590;28;20048;-75
2022/03/22 04:23:14;;;;;;;56.67;34.50;;;4.50;99.90;;;;;;5097493;28;20052;-75
2022/03/22 04:25:40;;;;;;;55.80;34.70;;;4.60;99.90;;;;;;5114504;28;20486;-75
2022/03/22 04:33:34;;;;;;;54.35;35.20;;;4.60;99.90;;;;;;5096527;28;20087;-75
2022/03/22 04:36:00;;;;;;;56.00;36.65;;;4.60;99.90;;;;;;5115404;28;20090;-75
2022/03/22 04:38:26;;;;;;;55.35;34.80;;;4.70;99.90;;;;;;5078166;28;20068;-75
2022/03/22 04:40:51;;;;;;;51.33;35.03;;;4.70;99.90;;;;;;5108221;28;20096;-75
2022/03/22 04:43:17;;;;;;;58.85;35.95;;;4.70;99.90;;;;;;5097168;28;20048;-75
2022/03/22 04:45:43;;;;;;;50.40;33.63;;;4.70;99.90;;;;;;5080024;28;20078;-75
2022/03/22 04:48:09;;;;;;;51.63;35.10;;;4.70;99.90;;;;;;5095932;28;20527;-75
2022/03/22 04:50:35;;;;;;;49.60;33.63;;;4.70;99.90;;;;;;5086700;28;20048;-75
2022/03/22 04:58:35;;;;;;;57.80;36.05;;;4.60;99.90;;;;;;5047537;28;20427;-75
2022/03/22 05:01:03;;;;;;;56.80;36.38;;;4.60;99.90;;;;;;5096033;28;20175;-75
2022/03/22 05:03:29;;;;;;;51.88;33.75;;;4.60;99.90;;;;;;5091987;28;20480;-75
2022/03/22 05:08:39;;;;;;;52.67;35.85;;;4.60;99.90;;;;;;5075519;28;20044;-75
2022/03/22 05:11:05;;;;;;;50.05;33.75;;;4.60;99.90;;;;;;5076286;28;20047;-75
2022/03/22 05:13:30;;;;;;;49.25;32.88;;;4.70;99.90;;;;;;5096478;28;20040;-75
2022/03/22 05:15:56;;;;;;;49.90;34.22;;;4.70;99.90;;;;;;5095649;28;20047;-75
2022/03/22 05:18:23;;;;;;;53.97;34.60;;;4.60;99.90;;;;;;5113093;28;20043;-75
2022/03/22 05:20:48;;;;;;;46.40;32.85;;;4.60;99.90;;;;;;5114737;28;20082;-75
2022/03/22 05:23:16;;;;;;;52.78;33.13;;;4.60;99.90;;;;;;5077749;28;20453;-76
2022/03/22 05:25:43;;;;;;;48.97;33.25;;;4.50;99.90;;;;;;5093015;28;20111;-74
2022/03/22 05:28:09;;;;;;;55.03;33.78;;;4.50;99.90;;;;;;5110082;28;20052;-73
2022/03/22 05:30:35;;;;;;;56.15;34.78;;;4.50;99.90;;;;;;5100433;28;20040;-74
2022/03/22 05:33:01;;;;;;;52.38;34.17;;;4.50;99.90;;;;;;5114562;28;20112;-75
2022/03/22 05:35:27;;;;;;;48.92;34.92;;;4.50;99.90;;;;;;5106110;28;20079;-75
2022/03/22 05:37:53;;;;;;;51.90;32.67;;;4.50;99.90;;;;;;5079278;28;20048;-76
2022/03/22 05:40:19;;;;;;;50.05;33.78;;;4.50;99.90;;;;;;5076098;28;20495;-76
2022/03/22 05:42:45;;;;;;;54.67;34.13;;;4.50;99.90;;;;;;5108971;28;20377;-75
2022/03/22 05:45:12;;;;;;;58.63;34.35;;;4.50;99.90;;;;;;5093983;28;20131;-75
2022/03/22 05:47:39;;;;;;;55.65;35.92;;;4.50;99.90;;;;;;5093977;28;20149;-75
2022/03/22 05:50:06;;;;;;;50.50;33.47;;;4.40;99.90;;;;;;5092824;28;20490;-75
2022/03/22 05:52:32;;;;;;;50.45;33.03;;;4.40;99.90;;;;;;5075942;28;20126;-75
2022/03/22 05:54:58;;;;;;;55.80;35.38;;;4.40;99.90;;;;;;5093874;28;20052;-76
2022/03/22 05:57:24;;;;;;;51.53;34.17;;;4.40;99.90;;;;;;5075067;28;20498;-75
2022/03/22 05:59:49;;;;;;;57.50;35.03;;;4.40;99.90;;;;;;5109645;28;20075;-75
2022/03/22 06:02:16;;;;;;;49.65;33.35;;;4.50;99.90;;;;;;5095525;28;20036;-75
2022/03/22 06:04:41;;;;;;;50.75;33.78;;;4.50;99.90;;;;;;5113208;28;20101;-75
2022/03/22 06:07:07;;;;;;;61.45;34.83;;;4.50;99.90;;;;;;5112011;28;20122;-75
2022/03/22 06:09:33;;;;;;;53.90;34.85;;;4.50;99.90;;;;;;5113692;28;20479;-75
2022/03/22 06:11:59;;;;;;;53.47;34.47;;;4.50;99.90;;;;;;5094571;28;20049;-75
2022/03/22 06:14:25;;;;;;;52.53;34.35;;;4.50;99.90;;;;;;5113937;28;20047;-75
2022/03/22 06:16:50;;;;;;;53.58;35.00;;;4.60;99.90;;;;;;5113831;28;20039;-75
2022/03/22 06:19:16;;;;;;;50.92;34.00;;;4.60;99.90;;;;;;5112767;28;20056;-75
2022/03/22 06:21:42;;;;;;;54.35;33.25;;;4.60;99.90;;;;;;5114068;28;20084;-75
2022/03/22 06:24:08;;;;;;;55.42;33.28;;;4.60;99.90;;;;;;5093902;28;20047;-75
2022/03/22 06:26:34;;;;;;;47.60;32.72;;;4.70;99.90;;;;;;5112752;28;20114;-75
2022/03/22 06:29:00;;;;;;;58.97;35.65;;;4.70;99.90;;;;;;5113177;28;20454;-75
2022/03/22 06:31:27;;;;;;;49.20;33.60;;;4.70;99.90;;;;;;5114229;28;20043;-75
2022/03/22 06:33:53;;;;;;;55.40;33.72;;;4.70;99.90;;;;;;5111191;28;20039;-76
2022/03/22 06:36:19;;;;;;;47.53;33.60;;;4.80;99.90;;;;;;5108461;28;20050;-76
2022/03/22 06:38:45;;;;;;;50.83;33.90;;;4.80;99.90;;;;;;5107525;28;20039;-75
2022/03/22 06:41:11;;;;;;;54.53;35.60;;;4.90;99.90;;;;;;5112381;28;20055;-76
2022/03/22 06:43:38;;;;;;;50.58;35.50;;;5.00;99.90;;;;;;5092132;28;20043;-76
2022/03/22 06:46:03;;;;;;;56.22;35.03;;;5.00;99.90;;;;;;5089740;28;20060;-75
2022/03/22 06:48:29;;;;;;;58.00;35.15;;;5.10;99.90;;;;;;5093230;28;20036;-75
2022/03/22 06:50:55;;;;;;;50.13;35.05;;;5.20;99.90;;;;;;5093058;28;20059;-75
2022/03/22 06:53:21;;;;;;;54.67;35.60;;;5.30;99.90;;;;;;5111610;28;20527;-75
2022/03/22 06:55:47;;;;;;;71.20;36.53;;;5.40;99.90;;;;;;5113679;28;20059;-75
2022/03/22 06:58:21;;;;;;;49.58;33.45;;;5.50;99.90;;;;;;5111568;28;20035;-75
2022/03/22 07:00:48;;;;;;;57.13;36.35;;;5.70;99.90;;;;;;5091968;28;20052;-75
2022/03/22 07:03:14;;;;;;;54.47;33.65;;;5.80;99.90;;;;;;5107924;28;20047;-75
2022/03/22 07:05:42;;;;;;;49.13;34.05;;;5.90;99.90;;;;;;5113061;28;20031;-75
2022/03/22 07:08:08;;;;;;;52.45;33.13;;;6.10;99.90;;;;;;5112222;28;20043;-75
2022/03/22 07:10:34;;;;;;;51.88;32.78;;;6.30;99.90;;;;;;5113283;28;20044;-75
2022/03/22 07:13:05;;;;;;;53.25;34.95;;;6.40;99.90;;;;;;5098236;28;20055;-75
2022/03/22 07:15:36;;;;;;;51.85;33.85;;;6.50;99.90;;;;;;5098064;28;20055;-75
2022/03/22 07:18:05;;;;;;;46.45;32.45;;;6.60;99.90;;;;;;5093900;28;20132;-75
2022/03/22 07:20:31;;;;;;;47.78;32.63;;;6.70;99.90;;;;;;5116842;28;20043;-75
2022/03/22 07:22:57;;;;;;;48.03;32.42;;;6.80;99.90;;;;;;5115814;28;20036;-75
2022/03/22 07:25:23;;;;;;;45.97;32.85;;;6.90;99.90;;;;;;5097214;28;20039;-75
2022/03/22 07:27:49;;;;;;;54.90;34.70;;;7.00;99.90;;;;;;5116882;28;20049;-75
2022/03/22 07:30:15;;;;;;;52.47;33.20;;;7.10;99.90;;;;;;5114986;28;20390;-75
2022/03/22 07:32:45;;;;;;;49.40;34.20;;;7.20;99.90;;;;;;5099370;28;20130;-75
2022/03/22 07:35:13;;;;;;;53.83;33.10;;;7.30;99.90;;;;;;5079630;28;20048;-75
2022/03/22 07:37:39;;;;;;;47.70;33.60;;;7.40;99.90;;;;;;5116656;28;20043;-75
2022/03/22 07:40:07;;;;;;;47.45;31.25;;;7.50;99.90;;;;;;5116246;28;20058;-75
2022/03/22 07:42:34;;;;;;;45.25;31.80;;;7.70;99.90;;;;;;5080648;28;20063;-75
2022/03/22 07:45:02;;;;;;;44.58;31.80;;;7.80;99.90;;;;;;5116403;28;20047;-75
2022/03/22 07:47:29;;;;;;;50.33;32.15;;;7.90;99.90;;;;;;5115273;28;20048;-75
2022/03/22 07:52:58;;;;;;;43.75;31.67;;;8.20;99.90;;;;;;5096407;28;20147;-75
2022/03/22 07:55:24;;;;;;;51.43;31.87;;;8.40;99.90;;;;;;5096044;28;20084;-75
2022/03/22 07:57:50;;;;;;;48.45;31.67;;;8.50;99.90;;;;;;5078841;28;20044;-75
2022/03/22 08:00:18;;;;;;;48.67;33.10;;;8.70;99.90;;;;;;5096671;28;20036;-75
2022/03/22 08:02:51;;;;;;;46.10;30.35;;;8.90;99.90;;;;;;5095829;28;20048;-75
2022/03/22 08:05:17;;;;;;;46.45;32.42;;;9.10;99.90;;;;;;5095049;28;20047;-75
2022/03/22 08:07:43;;;;;;;53.83;31.65;;;9.20;99.90;;;;;;5077838;28;20047;-75
2022/03/22 08:10:09;;;;;;;41.90;31.85;;;9.40;99.90;;;;;;5097256;28;20364;-75
2022/03/22 08:12:35;;;;;;;53.20;32.05;;;9.60;99.90;;;;;;5115213;28;20075;-75
2022/03/22 08:15:01;;;;;;;45.05;31.63;;;9.80;99.90;;;;;;5096711;28;20066;-75
2022/03/22 08:17:27;;;;;;;44.60;29.00;;;9.90;99.90;;;;;;5094384;28;20042;-75
2022/03/22 08:19:53;;;;;;;43.08;31.20;;;10.00;99.90;;;;;;5099044;28;20090;-75
2022/03/22 08:22:19;;;;;;;50.53;31.88;;;10.10;99.90;;;;;;5095317;28;20051;-75
2022/03/22 08:24:45;;;;;;;47.40;30.23;;;10.30;99.90;;;;;;5088063;28;20039;-75
2022/03/22 08:27:11;;;;;;;44.80;30.73;;;10.40;99.90;;;;;;5086586;28;20043;-75
2022/03/22 08:29:37;;;;;;;44.30;30.80;;;10.50;99.90;;;;;;5100364;28;20036;-75
2022/03/22 08:32:03;;;;;;;44.80;31.20;;;10.60;99.90;;;;;;5075651;28;20498;-74
2022/03/22 08:34:28;;;;;;;44.22;31.55;;;10.70;99.90;;;;;;5095353;28;20101;-75
2022/03/22 08:36:54;;;;;;;49.38;31.17;;;10.70;99.90;;;;;;5095347;28;20044;-75
2022/03/22 08:39:20;;;;;;;46.83;31.92;;;10.80;99.90;;;;;;5094467;28;20491;-75
2022/03/22 08:41:47;;;;;;;44.00;30.73;;;10.80;99.90;;;;;;5114762;28;20124;-75
2022/03/22 08:44:13;;;;;;;42.30;31.05;;;10.90;99.90;;;;;;5091471;28;20052;-75
2022/03/22 08:46:39;;;;;;;41.22;31.33;;;10.90;99.90;;;;;;5073672;28;20519;-75
2022/03/22 08:49:04;;;;;;;45.83;31.30;;;11.00;99.90;;;;;;5107979;28;20051;-75
2022/03/22 08:51:31;;;;;;;43.85;31.77;;;11.20;99.90;;;;;;5096963;28;20063;-75
2022/03/22 08:53:57;;;;;;;44.83;30.30;;;11.20;99.90;;;;;;5096178;28;20379;-75
2022/03/22 08:56:23;;;;;;;47.97;30.75;;;11.30;99.90;;;;;;5079998;28;20036;-75
2022/03/22 08:58:52;;;;;;;45.95;29.75;;;11.40;99.90;;;;;;5114728;28;20047;-75
2022/03/22 09:01:23;;;;;;;41.63;29.45;;;11.60;99.90;;;;;;5113752;28;20130;-75
2022/03/22 09:06:07;;;;;;;42.78;30.67;;;11.70;99.90;;;;;;5096168;28;20514;-75
2022/03/22 09:06:37;;;;;;;48.60;31.75;;;11.80;99.90;;;;;;5096735;28;20044;-75
2022/03/22 09:09:05;;;;;;;47.50;28.50;;;11.90;99.90;;;;;;5114428;28;20043;-75
2022/03/22 09:11:31;;;;;;;41.65;27.33;;;12.10;99.90;;;;;;5114841;28;20072;-75
2022/03/22 09:13:57;;;;;;;42.78;29.30;;;12.20;99.90;;;;;;5095004;28;20062;-75
2022/03/22 09:16:23;;;;;;;38.90;27.98;;;12.40;99.90;;;;;;5114615;28;20043;-75
2022/03/22 09:18:49;;;;;;;38.60;28.77;;;12.40;99.90;;;;;;5113898;28;20039;-75
2022/03/22 09:21:16;;;;;;;40.03;27.08;;;12.50;99.90;;;;;;5113035;28;20044;-75
2022/03/22 09:23:43;;;;;;;39.28;26.77;;;12.60;99.90;;;;;;5095649;28;20035;-75
2022/03/22 09:26:09;;;;;;;40.13;30.00;;;12.70;99.90;;;;;;5075986;28;20388;-75
2022/03/22 09:28:35;;;;;;;44.70;29.40;;;12.80;99.90;;;;;;5104393;28;20042;-75
2022/03/22 09:31:02;;;;;;;37.72;28.50;;;12.90;99.90;;;;;;5114337;28;20046;-75
2022/03/22 09:33:28;;;;;;;38.75;27.50;;;13.00;99.90;;;;;;5114102;28;20051;-75
2022/03/22 09:35:57;;;;;;;40.08;27.58;;;13.10;99.90;;;;;;5096084;28;20457;-75
2022/03/22 09:38:23;;;;;;;36.20;28.10;;;13.20;99.90;;;;;;5101144;28;20043;-75
2022/03/22 09:40:52;;;;;;;36.90;27.23;;;13.30;99.90;;;;;;5114199;28;20094;-76
2022/03/22 09:43:19;;;;;;;37.88;27.85;;;13.50;99.90;;;;;;5095094;28;20196;-75
2022/03/22 09:45:45;;;;;;;37.97;26.75;;;13.50;99.90;;;;;;5096033;28;20410;-75
2022/03/22 09:48:11;;;;;;;49.78;28.55;;;13.60;99.90;;;;;;5113921;28;20031;-76
2022/03/22 09:53:21;;;;;;;36.88;27.98;;;13.80;99.90;;;;;;5108349;28;20399;-75
2022/03/22 09:55:47;;;;;;;36.38;27.38;;;13.90;99.90;;;;;;5075702;28;20055;-75
2022/03/22 09:58:13;;;;;;;37.63;29.27;;;14.00;99.90;;;;;;5096330;28;20525;-75
2022/03/22 10:00:40;;;;;;;38.92;27.27;;;14.00;99.90;;;;;;5091669;28;20048;-75
2022/03/22 10:03:06;;;;;;;38.78;28.23;;;14.20;99.90;;;;;;5109370;28;20039;-75
2022/03/22 10:05:32;;;;;;;39.38;26.95;;;14.20;99.90;;;;;;5113788;28;20509;-75
2022/03/22 10:08:06;;;;;;;36.67;26.77;;;14.30;99.90;;;;;;5098165;28;20044;-75
2022/03/22 10:10:31;;;;;;;39.30;25.63;;;14.40;99.90;;;;;;5092899;28;20449;-75
2022/03/22 10:13:03;;;;;;;36.92;26.52;;;14.60;99.90;;;;;;5093723;28;20055;-75
2022/03/22 10:15:36;;;;;;;33.50;25.35;;;14.60;99.90;;;;;;5102111;28;20043;-75
2022/03/22 10:18:06;;;;;;;34.47;24.50;;;14.80;99.90;;;;;;5092465;28;20032;-75
2022/03/22 10:20:34;;;;;;;36.35;25.23;;;14.90;99.90;;;;;;5102286;28;20051;-75
2022/03/22 10:23:01;;;;;;;38.00;26.35;;;15.00;99.90;;;;;;5095564;28;20051;-75
2022/03/22 10:25:31;;;;;;;35.85;26.23;;;15.10;99.90;;;;;;5104771;28;20083;-75
2022/03/22 10:27:58;;;;;;;43.10;26.33;;;15.10;99.90;;;;;;5058852;28;20043;-75
2022/03/22 10:30:27;;;;;;;39.45;26.65;;;15.30;99.90;;;;;;5081990;28;20055;-75
2022/03/22 10:32:54;;;;;;;33.10;24.60;;;15.30;99.90;;;;;;5094629;28;20036;-75
2022/03/22 10:35:22;;;;;;;37.47;27.13;;;15.40;99.90;;;;;;5091543;28;20036;-75
2022/03/22 10:38:22;;;;;;;34.10;25.88;;;15.50;99.90;;;;;;5109158;28;20491;-75
2022/03/22 10:40:49;;;;;;;33.75;23.83;;;15.60;99.90;;;;;;5079341;28;20056;-75
2022/03/22 10:43:25;;;;;;;28.73;21.85;;;15.70;99.90;;;;;;5095216;28;20052;-75
2022/03/22 10:46:02;;;;;;;31.67;23.58;;;15.90;99.90;;;;;;5089921;28;20122;-75
2022/03/22 10:48:32;;;;;;;39.35;24.08;;;16.00;99.90;;;;;;5096509;28;20059;-75
2022/03/22 10:50:59;;;;;;;30.65;24.13;;;16.10;99.90;;;;;;5116593;28;20058;-75
2022/03/22 10:53:27;;;;;;;32.67;23.50;;;16.20;99.90;;;;;;5116592;28;20113;-75
2022/03/22 10:55:54;;;;;;;26.70;21.48;;;16.40;99.90;;;;;;5116993;28;20108;-75
2022/03/22 10:58:25;;;;;;;30.92;22.15;;;16.50;99.90;;;;;;5099226;28;20449;-75
2022/03/22 11:00:52;;;;;;;27.80;21.20;;;16.70;99.90;;;;;;5115485;28;20092;-75
2022/03/22 11:03:18;;;;;;;32.20;20.73;;;16.80;99.90;;;;;;5117548;28;20039;-75
2022/03/22 11:05:50;;;;;;;29.33;20.40;;;16.90;99.90;;;;;;5116739;28;20430;-75
2022/03/22 11:08:22;;;;;;;34.25;20.70;;;16.90;99.80;;;;;;5116359;28;20039;-75
2022/03/22 11:10:49;;;;;;;29.88;20.15;;;17.00;98.70;;;;;;5116816;28;20534;-75
2022/03/22 11:13:15;;;;;;;26.13;19.27;;;17.10;98.40;;;;;;5116366;28;20050;-75
2022/03/22 11:15:44;;;;;;;29.70;19.90;;;17.20;97.70;;;;;;5116228;28;20036;-75
2022/03/22 11:18:11;;;;;;;27.23;19.70;;;17.20;96.50;;;;;;5116925;28;20039;-75
2022/03/22 11:20:51;;;;;;;23.83;19.27;;;17.20;96.30;;;;;;5097982;28;20343;-75
2022/03/22 11:23:23;;;;;;;24.83;18.85;;;17.30;95.90;;;;;;5099001;28;20050;-75
2022/03/22 11:25:49;;;;;;;26.50;19.77;;;17.30;96.20;;;;;;5116600;28;20035;-75
2022/03/22 11:28:22;;;;;;;27.42;17.98;;;17.40;96.40;;;;;;5097992;28;20042;-75
2022/03/22 11:30:49;;;;;;;24.67;18.77;;;17.50;95.20;;;;;;5097550;28;20048;-73
2022/03/22 11:36:17;;;;;;;26.98;18.40;;;17.70;94.20;;;;;;5099842;28;20044;-75
2022/03/22 11:38:52;;;;;;;26.13;18.33;;;17.70;93.10;;;;;;5098739;28;20047;-75
2022/03/22 11:44:22;;;;;;;24.63;17.90;;;17.80;92.70;;;;;;5116791;28;20453;-75
2022/03/22 11:47:01;;;;;;;28.25;20.08;;;17.90;92.40;;;;;;5098159;28;20047;-75
2022/03/22 11:49:26;;;;;;;25.52;17.70;;;18.00;91.70;;;;;;5097341;28;20055;-75
2022/03/22 11:51:58;;;;;;;29.95;19.40;;;18.10;91.90;;;;;;5112986;28;20557;-75
2022/03/22 11:54:28;;;;;;;27.20;19.45;;;18.20;91.30;;;;;;5098380;28;20436;-75
2022/03/22 11:56:59;;;;;;;27.52;19.95;;;18.30;90.70;;;;;;5096820;28;20389;-76
2022/03/22 11:59:26;;;;;;;30.60;20.13;;;18.30;89.20;;;;;;5079675;28;20126;-74
2022/03/22 12:02:03;;;;;;;27.02;19.08;;;18.40;90.10;;;;;;5094259;28;20495;-74
2022/03/22 12:04:36;;;;;;;30.08;20.70;;;18.40;88.00;;;;;;5077102;28;20131;-74
2022/03/22 12:07:03;;;;;;;27.98;21.45;;;18.60;87.70;;;;;;5077670;28;20072;-75
2022/03/22 12:09:29;;;;;;;32.10;21.42;;;18.60;87.20;;;;;;5095094;28;20047;-75
2022/03/22 12:11:58;;;;;;;31.67;22.75;;;18.70;87.20;;;;;;5080558;28;20046;-74
2022/03/22 12:14:28;;;;;;;28.80;21.50;;;18.80;86.40;;;;;;5094225;28;20055;-74
2022/03/22 12:16:56;;;;;;;28.20;20.35;;;18.90;85.00;;;;;;5094616;28;20062;-73
2022/03/22 12:19:33;;;;;;;26.98;18.92;;;19.00;85.40;;;;;;5113378;28;20104;-73
2022/03/22 12:22:00;;;;;;;27.45;19.65;;;19.10;83.90;;;;;;5080520;28;20433;-73
2022/03/22 12:24:30;;;;;;;28.67;21.75;;;19.20;84.10;;;;;;5090747;28;20490;-74
2022/03/22 12:26:58;;;;;;;31.20;20.85;;;19.20;82.30;;;;;;5095414;28;20441;-73
2022/03/22 12:29:25;;;;;;;33.65;23.05;;;19.30;82.70;;;;;;5111415;28;20043;-74
2022/03/22 12:31:53;;;;;;;32.13;21.25;;;19.30;81.30;;;;;;5096563;28;20173;-73
2022/03/22 12:34:22;;;;;;;33.83;22.45;;;19.30;79.70;;;;;;5115307;28;20044;-74
2022/03/22 12:36:48;;;;;;;30.77;20.77;;;19.30;80.50;;;;;;5114890;28;20111;-74
2022/03/22 12:39:14;;;;;;;29.08;19.88;;;19.30;80.20;;;;;;5092868;28;20551;-74
2022/03/22 12:41:43;;;;;;;30.33;18.70;;;19.40;78.70;;;;;;5076630;28;20059;-74
2022/03/22 12:44:09;;;;;;;29.20;20.27;;;19.40;77.70;;;;;;5089653;28;20047;-74
2022/03/22 12:46:35;;;;;;;30.30;20.27;;;19.50;76.60;;;;;;5096557;28;20053;-74
2022/03/22 12:49:03;;;;;;;28.63;19.33;;;19.50;75.50;;;;;;5096481;28;20051;-74
2022/03/22 12:51:31;;;;;;;29.23;19.45;;;19.50;75.90;;;;;;5079948;28;20097;-74
2022/03/22 12:54:01;;;;;;;29.08;19.38;;;19.50;75.80;;;;;;5113989;28;20453;-74
2022/03/22 12:56:27;;;;;;;37.22;20.15;;;19.60;76.50;;;;;;5096836;28;20498;-74
2022/03/22 12:58:56;;;;;;;29.92;20.75;;;19.70;75.70;;;;;;5113863;28;20036;-74
2022/03/22 13:01:22;;;;;;;28.00;21.50;;;19.80;74.10;;;;;;5115166;28;20043;-74
2022/03/22 13:03:48;;;;;;;29.25;20.02;;;19.80;73.30;;;;;;5093058;28;20505;-74
2022/03/22 13:06:14;;;;;;;26.70;20.38;;;19.80;73.20;;;;;;5075942;28;20047;-74
2022/03/22 13:11:27;;;;;;;29.75;19.63;;;19.70;73.30;;;;;;5093101;28;20036;-74
2022/03/22 13:16:39;;;;;;;28.80;19.27;;;19.80;71.70;;;;;;5094324;28;20048;-74
2022/03/22 13:19:09;;;;;;;28.80;19.90;;;19.80;71.90;;;;;;5101522;28;20546;-74